createdAt,value
2023-03-29T00:00:39.205Z,99215.19
2023-03-29T00:03:16.259Z,99216.25
2023-03-29T00:05:50.298Z,99216.63
2023-03-29T00:08:33.018Z,99217.84
2023-03-29T00:11:11.086Z,99226.78
2023-03-29T00:13:40.588Z,99229.38
2023-03-29T00:16:13.016Z,99208.16
2023-03-29T00:18:44.289Z,99152.66
2023-03-29T00:21:24.823Z,99217.84
2023-03-29T00:23:53.784Z,99205.38
2023-03-29T00:26:27.471Z,99217.56
2023-03-29T00:28:57.487Z,99202.00
2023-03-29T00:31:44.577Z,99214.34
2023-03-29T00:34:18.224Z,99212.78
2023-03-29T00:37:05.816Z,99205.91
2023-03-29T00:39:43.276Z,99162.03
2023-03-29T00:42:22.373Z,99191.00
2023-03-29T00:44:59.824Z,99197.53
2023-03-29T00:47:51.418Z,99201.47
2023-03-29T00:50:41.830Z,99211.34
2023-03-29T00:53:13.002Z,99207.19
2023-03-29T00:56:01.149Z,99211.44
2023-03-29T00:58:40.687Z,99210.72
2023-03-29T01:01:22.843Z,99209.03
2023-03-29T01:04:10.646Z,99196.75
2023-03-29T01:06:47.033Z,99188.66
2023-03-29T01:12:13.183Z,99185.09
2023-03-29T01:14:57.091Z,99190.78
2023-03-29T01:17:27.748Z,99205.28
2023-03-29T01:20:11.721Z,99171.19
2023-03-29T01:23:18.087Z,99180.97
2023-03-29T01:25:57.823Z,99177.41
2023-03-29T01:29:12.818Z,99173.66
2023-03-29T01:31:53.011Z,99160.47
2023-03-29T01:35:28.270Z,99181.56
2023-03-29T01:38:09.680Z,99187.88
2023-03-29T01:40:41.037Z,99188.75
2023-03-29T01:43:40.963Z,99189.88
2023-03-29T01:46:14.895Z,99187.72
2023-03-29T01:48:58.177Z,99186.03
2023-03-29T01:51:46.097Z,99178.22
2023-03-29T01:54:34.162Z,99185.56
2023-03-29T01:57:18.006Z,99184.28
2023-03-29T01:59:51.480Z,99191.97
2023-03-29T02:02:21.819Z,99186.63
2023-03-29T02:04:58.332Z,99172.69
2023-03-29T02:07:31.206Z,99167.25
2023-03-29T02:10:07.718Z,99179.72
2023-03-29T02:12:54.468Z,99188.50
2023-03-29T02:15:25.535Z,99176.38
2023-03-29T02:18:04.702Z,99182.47
2023-03-29T02:20:43.839Z,99159.53
2023-03-29T02:23:28.360Z,99193.16
2023-03-29T02:26:01.955Z,99180.53
2023-03-29T02:28:32.055Z,99174.44
2023-03-29T02:31:10.812Z,99170.75
2023-03-29T02:33:53.356Z,99176.44
2023-03-29T02:36:44.824Z,99164.41
2023-03-29T02:39:26.649Z,99157.47
2023-03-29T02:41:56.853Z,99171.13
2023-03-29T02:44:38.198Z,99163.34
2023-03-29T02:47:13.510Z,99157.06
2023-03-29T02:49:44.208Z,99168.06
2023-03-29T02:52:25.801Z,99177.91
2023-03-29T02:55:00.480Z,99180.81
2023-03-29T02:57:29.771Z,99183.09
2023-03-29T03:00:03.308Z,99154.00
2023-03-29T03:02:33.189Z,99123.47
2023-03-29T03:07:51.863Z,99170.50
2023-03-29T03:10:24.007Z,99193.38
2023-03-29T03:12:53.729Z,99191.88
2023-03-29T03:15:39.607Z,99207.19
2023-03-29T03:18:13.397Z,99206.81
2023-03-29T03:20:57.915Z,99190.88
2023-03-29T03:23:27.213Z,99198.97
2023-03-29T03:25:55.832Z,99187.53
2023-03-29T03:31:14.601Z,99202.19
2023-03-29T03:34:28.750Z,99186.53
2023-03-29T03:39:55.870Z,99180.91
2023-03-29T03:42:28.174Z,99177.16
2023-03-29T03:44:56.154Z,99172.78
2023-03-29T03:48:04.722Z,99172.72
2023-03-29T03:51:24.917Z,99167.25
2023-03-29T03:56:42.309Z,99151.19
2023-03-29T03:59:19.203Z,99139.50
2023-03-29T04:02:05.381Z,99147.25
2023-03-29T04:04:43.509Z,99135.91
2023-03-29T04:07:19.900Z,99145.59
2023-03-29T04:10:15.819Z,99156.34
2023-03-29T04:13:08.982Z,99150.66
2023-03-29T04:16:08.682Z,99142.94
2023-03-29T04:18:36.638Z,99145.63
2023-03-29T04:21:07.301Z,99162.22
2023-03-29T04:23:42.013Z,99141.72
2023-03-29T04:26:16.276Z,99120.41
2023-03-29T04:29:00.272Z,99118.97
2023-03-29T04:31:51.772Z,99120.97
2023-03-29T04:34:50.318Z,99129.53
2023-03-29T04:37:32.263Z,99119.56
2023-03-29T04:40:09.044Z,99118.50
2023-03-29T04:42:54.658Z,99121.25
2023-03-29T04:45:33.626Z,99135.19
2023-03-29T04:48:29.199Z,99135.09
2023-03-29T04:50:59.304Z,99130.09
2023-03-29T04:53:32.269Z,99129.47
2023-03-29T04:56:06.585Z,99106.25
2023-03-29T04:59:03.344Z,99115.88
2023-03-29T05:01:34.321Z,99142.59
2023-03-29T05:04:12.777Z,99129.50
2023-03-29T05:06:56.161Z,99141.13
2023-03-29T05:09:35.708Z,99141.97
2023-03-29T05:12:10.576Z,99130.56
2023-03-29T05:14:50.515Z,99135.44
2023-03-29T05:20:16.376Z,99147.44
2023-03-29T05:22:53.656Z,99133.34
2023-03-29T05:25:44.696Z,99146.16
2023-03-29T05:28:17.245Z,99129.53
2023-03-29T05:30:47.313Z,99135.22
2023-03-29T05:33:22.070Z,99116.50
2023-03-29T05:35:59.701Z,99138.81
2023-03-29T05:38:35.853Z,99143.06
2023-03-29T05:41:14.159Z,99146.88
2023-03-29T05:47:18.948Z,99136.56
2023-03-29T05:49:50.291Z,99139.66
2023-03-29T05:52:31.529Z,99143.78
2023-03-29T05:55:27.045Z,99136.91
2023-03-29T05:58:04.581Z,99147.81
2023-03-29T06:00:38.661Z,99146.97
2023-03-29T06:03:28.468Z,99149.13
2023-03-29T06:06:07.524Z,99133.13
2023-03-29T06:08:38.507Z,99154.19
2023-03-29T06:11:20.638Z,99144.34
2023-03-29T06:14:16.261Z,99161.72
2023-03-29T06:16:57.707Z,99174.78
2023-03-29T06:19:37.268Z,99179.13
2023-03-29T06:22:22.271Z,99168.53
2023-03-29T06:24:53.218Z,99141.38
2023-03-29T06:27:36.234Z,99131.09
2023-03-29T06:30:18.526Z,99117.72
2023-03-29T06:32:54.727Z,99143.06
2023-03-29T06:35:57.712Z,99141.00
2023-03-29T06:38:31.921Z,99134.75
2023-03-29T06:41:40.808Z,99119.47
2023-03-29T06:44:44.616Z,99123.56
2023-03-29T06:47:20.890Z,99094.25
2023-03-29T06:49:51.444Z,99106.66
2023-03-29T06:55:37.199Z,99097.53
2023-03-29T06:58:47.668Z,99102.38
2023-03-29T07:01:41.567Z,99102.09
2023-03-29T07:04:21.414Z,99101.41
2023-03-29T07:07:30.074Z,99105.53
2023-03-29T07:10:25.348Z,99112.78
2023-03-29T07:13:25.195Z,99108.41
2023-03-29T07:16:15.270Z,99112.53
2023-03-29T07:22:00.427Z,99097.81
2023-03-29T07:24:54.863Z,99114.66
2023-03-29T07:27:23.970Z,99120.44
2023-03-29T07:29:53.574Z,99125.94
2023-03-29T07:32:23.977Z,99106.69
2023-03-29T07:35:22.165Z,99131.34
2023-03-29T07:38:00.443Z,99128.66
2023-03-29T07:40:32.847Z,99102.38
2023-03-29T07:43:14.775Z,99128.00
2023-03-29T07:45:53.405Z,99132.56
2023-03-29T07:48:23.292Z,99120.59
2023-03-29T07:51:08.612Z,99113.25
2023-03-29T07:54:01.625Z,99084.69
2023-03-29T07:57:05.448Z,99110.94
2023-03-29T07:59:41.050Z,99109.13
2023-03-29T08:02:23.950Z,99112.47
2023-03-29T08:04:58.626Z,99091.84
2023-03-29T08:07:47.439Z,99098.88
2023-03-29T08:10:49.687Z,99074.78
2023-03-29T08:13:47.419Z,99102.13
2023-03-29T08:16:46.696Z,99100.88
2023-03-29T08:19:52.334Z,99104.81
2023-03-29T08:22:27.455Z,99094.19
2023-03-29T08:25:12.554Z,99081.28
2023-03-29T08:27:54.778Z,99090.59
2023-03-29T08:33:28.979Z,99081.53
2023-03-29T08:36:18.788Z,99070.25
2023-03-29T08:38:50.560Z,99069.44
2023-03-29T08:45:03.591Z,99074.63
2023-03-29T08:48:26.388Z,99075.47
2023-03-29T08:51:02.823Z,99066.06
2023-03-29T08:53:53.012Z,99061.34
2023-03-29T08:59:36.047Z,99049.75
2023-03-29T09:02:20.368Z,99047.00
2023-03-29T09:04:56.319Z,99052.06
2023-03-29T09:07:57.439Z,99049.47
2023-03-29T09:10:45.370Z,99034.00
2023-03-29T09:13:39.010Z,99040.63
2023-03-29T09:16:31.722Z,99035.88
2023-03-29T09:19:40.827Z,99031.72
2023-03-29T09:22:59.197Z,99015.91
2023-03-29T09:26:08.344Z,99001.47
2023-03-29T09:29:09.014Z,99010.44
2023-03-29T09:31:44.056Z,99008.66
2023-03-29T09:34:25.872Z,99011.00
2023-03-29T09:37:23.924Z,99005.41
2023-03-29T09:40:30.242Z,99001.00
2023-03-29T09:43:23.486Z,98986.75
2023-03-29T09:46:10.619Z,98971.50
2023-03-29T09:48:50.875Z,98970.44
2023-03-29T09:51:25.515Z,98973.03
2023-03-29T09:53:59.678Z,98973.34
2023-03-29T09:56:49.451Z,98965.50
2023-03-29T09:59:23.823Z,98943.84
2023-03-29T10:01:55.057Z,98942.91
2023-03-29T10:04:27.466Z,98948.97
2023-03-29T10:07:24.158Z,98944.28
2023-03-29T10:10:10.515Z,98934.41
2023-03-29T10:12:50.283Z,98936.38
2023-03-29T10:18:06.299Z,98928.00
2023-03-29T10:20:41.171Z,98922.84
2023-03-29T10:23:21.845Z,98923.59
2023-03-29T10:28:38.286Z,98916.97
2023-03-29T10:31:08.673Z,98908.84
2023-03-29T10:33:44.761Z,98909.06
2023-03-29T10:36:23.943Z,98915.28
2023-03-29T10:38:55.376Z,98904.69
2023-03-29T10:41:27.266Z,98902.66
2023-03-29T10:46:53.608Z,98877.63
2023-03-29T10:49:25.412Z,98877.63
2023-03-29T10:51:54.303Z,98866.63
2023-03-29T10:54:32.984Z,98858.56
2023-03-29T11:00:36.557Z,98858.63
2023-03-29T11:03:51.707Z,98868.94
2023-03-29T11:06:38.750Z,98871.34
2023-03-29T11:09:25.512Z,98862.00
2023-03-29T11:12:26.768Z,98860.56
2023-03-29T11:15:21.842Z,98858.59
2023-03-29T11:18:16.917Z,98859.00
2023-03-29T11:21:21.110Z,98849.91
2023-03-29T11:24:33.654Z,98849.41
2023-03-29T11:27:52.658Z,98844.84
2023-03-29T11:30:41.642Z,98840.50
2023-03-29T11:33:38.140Z,98829.53
2023-03-29T11:36:47.985Z,98819.81
2023-03-29T11:39:39.110Z,98819.28
2023-03-29T11:42:24.030Z,98834.50
2023-03-29T11:47:54.531Z,98809.88
2023-03-29T11:50:36.851Z,98805.38
2023-03-29T11:53:24.453Z,98794.91
2023-03-29T11:55:57.946Z,98793.66
2023-03-29T11:58:42.551Z,98786.19
2023-03-29T12:01:23.383Z,98788.16
2023-03-29T12:04:11.325Z,98767.22
2023-03-29T12:07:04.390Z,98783.41
2023-03-29T12:10:15.801Z,98782.75
2023-03-29T12:13:11.841Z,98771.31
2023-03-29T12:15:51.872Z,98786.38
2023-03-29T12:18:35.794Z,98760.91
2023-03-29T12:21:20.730Z,98783.78
2023-03-29T12:23:56.509Z,98780.41
2023-03-29T12:26:48.127Z,98787.13
2023-03-29T12:29:25.664Z,98778.84
2023-03-29T12:32:36.352Z,98781.25
2023-03-29T12:36:09.120Z,98777.03
2023-03-29T12:38:56.356Z,98787.91
2023-03-29T12:41:50.045Z,98774.91
2023-03-29T12:44:44.456Z,98765.47
2023-03-29T12:47:38.260Z,98779.44
2023-03-29T12:50:19.855Z,98785.38
2023-03-29T12:52:50.424Z,98781.72
2023-03-29T12:55:37.098Z,98780.00
2023-03-29T12:58:08.836Z,98760.69
2023-03-29T13:00:40.327Z,98768.41
2023-03-29T13:03:33.858Z,98761.34
2023-03-29T13:09:41.627Z,98772.91
2023-03-29T13:12:42.837Z,98758.56
2023-03-29T13:15:19.371Z,98759.81
2023-03-29T13:18:14.333Z,98748.66
2023-03-29T13:20:55.577Z,98758.00
2023-03-29T13:24:05.438Z,98750.88
2023-03-29T13:26:51.933Z,98751.94
2023-03-29T13:29:57.254Z,98705.28
2023-03-29T13:32:59.674Z,98743.38
2023-03-29T13:36:01.486Z,98754.91
2023-03-29T13:38:40.649Z,98744.75
2023-03-29T13:41:52.324Z,98731.91
2023-03-29T13:44:38.375Z,98719.09
2023-03-29T13:47:17.785Z,98710.50
2023-03-29T13:49:54.373Z,98725.53
2023-03-29T13:52:29.536Z,98721.31
2023-03-29T13:55:09.250Z,98733.84
2023-03-29T13:58:19.661Z,98726.81
2023-03-29T14:00:58.180Z,98729.78
2023-03-29T14:03:33.433Z,98725.59
2023-03-29T14:06:11.904Z,98744.88
2023-03-29T14:08:43.744Z,98737.56
2023-03-29T14:11:26.873Z,98727.06
2023-03-29T14:14:01.541Z,98712.53
2023-03-29T14:16:34.995Z,98717.72
2023-03-29T14:19:07.556Z,98714.88
2023-03-29T14:24:40.817Z,98712.06
2023-03-29T14:27:21.490Z,98711.25
2023-03-29T14:30:06.203Z,98674.75
2023-03-29T14:32:47.211Z,98708.81
2023-03-29T14:35:21.158Z,98706.53
2023-03-29T14:37:50.222Z,98704.13
2023-03-29T14:40:24.855Z,98705.31
2023-03-29T14:42:53.323Z,98716.81
2023-03-29T14:45:38.101Z,98701.81
2023-03-29T14:48:11.780Z,98710.56
2023-03-29T14:50:41.036Z,98713.13
2023-03-29T14:56:04.875Z,98727.47
2023-03-29T15:01:49.361Z,98709.97
2023-03-29T15:04:20.291Z,98715.50
2023-03-29T15:06:53.860Z,98713.66
2023-03-29T15:09:48.876Z,98732.63
2023-03-29T15:17:52.167Z,98708.28
2023-03-29T15:20:37.868Z,98692.75
2023-03-29T15:23:30.431Z,98715.25
2023-03-29T15:26:01.729Z,98709.72
2023-03-29T15:28:51.138Z,98696.75
2023-03-29T15:31:23.493Z,98691.09
2023-03-29T15:33:56.063Z,98683.72
2023-03-29T15:39:20.561Z,98682.06
2023-03-29T15:41:59.477Z,98685.72
2023-03-29T15:44:41.139Z,98681.03
2023-03-29T15:47:23.080Z,98682.44
2023-03-29T15:49:53.680Z,98686.56
2023-03-29T15:52:25.320Z,98695.81
2023-03-29T15:55:05.523Z,98693.72
2023-03-29T15:57:47.053Z,98693.44
2023-03-29T16:00:18.306Z,98687.97
2023-03-29T16:02:49.148Z,98690.75
2023-03-29T16:05:26.489Z,98685.00
2023-03-29T16:08:00.247Z,98685.22
2023-03-29T16:10:28.243Z,98701.03
2023-03-29T16:13:14.964Z,98701.41
2023-03-29T16:15:53.966Z,98701.78
2023-03-29T16:18:37.853Z,98711.47
2023-03-29T16:21:15.613Z,98696.88
2023-03-29T16:23:53.246Z,98716.13
2023-03-29T16:26:25.121Z,98728.75
2023-03-29T16:28:56.117Z,98713.47
2023-03-29T16:31:35.232Z,98705.91
2023-03-29T16:34:19.056Z,98735.59
2023-03-29T16:36:56.724Z,98735.13
2023-03-29T16:39:26.858Z,98731.03
2023-03-29T16:41:57.588Z,98734.63
2023-03-29T16:44:30.452Z,98740.69
2023-03-29T16:47:06.121Z,98721.19
2023-03-29T16:49:38.668Z,98730.88
2023-03-29T16:52:10.944Z,98752.31
2023-03-29T16:54:42.528Z,98755.91
2023-03-29T16:57:14.500Z,98759.97
2023-03-29T16:59:50.142Z,98762.00
2023-03-29T17:02:26.373Z,98769.13
2023-03-29T17:04:57.889Z,98770.75
2023-03-29T17:07:41.899Z,98774.44
2023-03-29T17:10:16.828Z,98774.19
2023-03-29T17:12:46.129Z,98748.72
2023-03-29T17:15:15.817Z,98781.97
2023-03-29T17:17:45.929Z,98781.44
2023-03-29T17:20:17.898Z,98789.84
2023-03-29T17:22:54.152Z,98788.69
2023-03-29T17:25:24.559Z,98781.97
2023-03-29T17:27:54.559Z,98788.38
2023-03-29T17:30:24.945Z,98777.91
2023-03-29T17:32:55.742Z,98783.78
2023-03-29T17:35:26.714Z,98781.44
2023-03-29T17:38:11.919Z,98788.28
2023-03-29T17:40:49.636Z,98727.78
2023-03-29T17:43:27.839Z,98788.94
2023-03-29T17:45:56.489Z,98789.19
2023-03-29T17:48:36.765Z,98804.56
2023-03-29T17:51:17.397Z,98802.75
2023-03-29T17:53:51.711Z,98826.69
2023-03-29T17:56:23.524Z,98808.69
2023-03-29T17:58:55.038Z,98833.47
2023-03-29T18:01:27.974Z,98835.34
2023-03-29T18:03:58.764Z,98834.03
2023-03-29T18:06:39.679Z,98828.25
2023-03-29T18:09:12.352Z,98850.47
2023-03-29T18:11:40.316Z,98839.03
2023-03-29T18:14:11.087Z,98850.63
2023-03-29T18:16:44.543Z,98859.63
2023-03-29T18:19:17.196Z,98857.38
2023-03-29T18:21:47.748Z,98864.00
2023-03-29T18:24:23.996Z,98858.78
2023-03-29T18:26:54.407Z,98851.69
2023-03-29T18:29:25.932Z,98850.19
2023-03-29T18:32:05.451Z,98868.50
2023-03-29T18:37:21.225Z,98863.91
2023-03-29T18:42:41.101Z,98856.13
2023-03-29T18:45:09.800Z,98872.34
2023-03-29T18:47:42.128Z,98866.22
2023-03-29T18:50:16.429Z,98872.19
2023-03-29T18:52:47.285Z,98873.00
2023-03-29T18:55:21.262Z,98883.03
2023-03-29T18:57:53.289Z,98860.88
2023-03-29T19:03:14.376Z,98888.94
2023-03-29T19:05:55.192Z,98900.72
2023-03-29T19:08:28.535Z,98898.28
2023-03-29T19:11:08.675Z,98877.66
2023-03-29T19:13:59.924Z,98906.50
2023-03-29T19:16:35.583Z,98905.44
2023-03-29T19:19:13.366Z,98916.72
2023-03-29T19:21:59.794Z,98909.44
2023-03-29T19:24:40.911Z,98913.88
2023-03-29T19:27:14.862Z,98922.78
2023-03-29T19:29:49.056Z,98910.38
2023-03-29T19:32:23.072Z,98923.91
2023-03-29T19:34:53.449Z,98926.16
2023-03-29T19:37:24.421Z,98918.66
2023-03-29T19:40:02.164Z,98928.38
2023-03-29T19:42:46.798Z,98915.00
2023-03-29T19:45:18.209Z,98927.44
2023-03-29T19:47:53.201Z,98924.50
2023-03-29T19:50:43.835Z,98931.34
2023-03-29T19:53:38.451Z,98936.88
2023-03-29T19:56:18.201Z,98939.44
2023-03-29T19:58:59.152Z,98894.69
2023-03-29T20:01:35.284Z,98933.47
2023-03-29T20:04:06.988Z,98942.66
2023-03-29T20:06:43.108Z,98941.03
2023-03-29T20:09:18.581Z,98938.56
2023-03-29T20:12:00.282Z,98926.97
2023-03-29T20:14:28.741Z,98938.94
2023-03-29T20:17:08.005Z,98938.56
2023-03-29T20:19:46.033Z,98933.06
2023-03-29T20:22:16.393Z,98924.03
2023-03-29T20:24:45.812Z,98936.50
2023-03-29T20:27:16.922Z,98918.16
2023-03-29T20:29:47.699Z,98928.47
2023-03-29T20:32:20.879Z,98908.28
2023-03-29T20:34:53.147Z,98911.78
2023-03-29T20:37:37.878Z,98928.13
2023-03-29T20:40:14.408Z,98937.63
2023-03-29T20:42:42.952Z,98934.09
2023-03-29T20:45:20.896Z,98933.16
2023-03-29T20:50:53.107Z,98939.25
2023-03-29T20:53:22.581Z,98931.47
2023-03-29T20:55:57.497Z,98940.56
2023-03-29T20:58:30.864Z,98930.13
2023-03-29T21:01:02.639Z,98937.13
2023-03-29T21:03:33.074Z,98947.69
2023-03-29T21:06:17.250Z,98947.00
2023-03-29T21:08:47.591Z,98945.28
2023-03-29T21:11:21.185Z,98946.22
2023-03-29T21:13:50.384Z,98946.09
2023-03-29T21:16:24.889Z,98946.25
2023-03-29T21:18:52.750Z,98948.94
2023-03-29T21:21:23.076Z,98942.34
2023-03-29T21:24:01.084Z,98941.50
2023-03-29T21:29:18.636Z,98939.84
2023-03-29T21:31:50.076Z,98879.88
2023-03-29T21:34:22.598Z,98941.69
2023-03-29T21:36:53.917Z,98947.97
2023-03-29T21:39:27.128Z,98957.84
2023-03-29T21:42:13.917Z,98955.66
2023-03-29T21:44:44.985Z,98954.78
2023-03-29T21:47:19.092Z,98950.88
2023-03-29T21:49:46.826Z,98957.28
2023-03-29T21:52:18.200Z,98963.06
2023-03-29T21:54:46.497Z,98945.06
2023-03-29T22:00:20.762Z,98945.81
2023-03-29T22:05:30.209Z,98942.50
2023-03-29T22:08:04.021Z,98950.13
2023-03-29T22:10:34.777Z,98923.59
2023-03-29T22:13:22.198Z,98929.06
2023-03-29T22:15:56.662Z,98936.25
2023-03-29T22:18:46.426Z,98941.78
2023-03-29T22:21:18.546Z,98947.22
2023-03-29T22:24:01.450Z,98945.50
2023-03-29T22:26:32.639Z,98944.75
2023-03-29T22:31:48.943Z,98939.00
2023-03-29T22:34:28.233Z,98935.72
2023-03-29T22:37:02.637Z,98942.88
2023-03-29T22:39:33.661Z,98950.13
2023-03-29T22:42:04.672Z,98936.63
2023-03-29T22:44:34.304Z,98933.47
2023-03-29T22:47:04.620Z,98928.53
2023-03-29T22:49:41.535Z,98929.34
2023-03-29T22:52:12.243Z,98925.78
2023-03-29T22:54:46.309Z,98924.91
2023-03-29T22:57:20.045Z,98922.41
2023-03-29T22:59:52.137Z,98921.00
2023-03-29T23:02:24.613Z,98924.81
2023-03-29T23:04:56.578Z,98924.06
2023-03-29T23:07:28.334Z,98924.06
2023-03-29T23:10:07.135Z,98927.69
2023-03-29T23:12:41.985Z,98926.59
2023-03-29T23:15:16.603Z,98923.28
2023-03-29T23:17:56.256Z,98920.91
2023-03-29T23:20:27.126Z,98908.50
2023-03-29T23:22:58.057Z,98908.75
2023-03-29T23:25:37.089Z,98913.22
2023-03-29T23:28:07.974Z,98914.09
2023-03-29T23:30:53.705Z,98942.84
2023-03-29T23:33:31.125Z,98936.09
2023-03-29T23:36:34.496Z,98942.97
2023-03-29T23:39:04.913Z,98946.72
2023-03-29T23:41:45.383Z,98930.59
2023-03-29T23:44:15.762Z,98939.91
2023-03-29T23:46:50.046Z,98944.97
2023-03-29T23:49:25.946Z,98930.81
2023-03-29T23:52:02.586Z,98953.81
2023-03-29T23:54:36.424Z,98954.63
2023-03-29T23:57:08.887Z,98942.69
2023-03-29T23:59:42.590Z,98942.69
